sensor_id;sensor_type;location;lat;lon;timestamp;temperature;humidity
23618;DHT22;18207;32.078;34.818;2024-02-16T00:00:15;21.50;42.70
23618;DHT22;18207;32.078;34.818;2024-02-16T00:02:45;21.50;42.70
23618;DHT22;18207;32.078;34.818;2024-02-16T00:05:17;21.50;42.70
23618;DHT22;18207;32.078;34.818;2024-02-16T00:07:47;21.50;42.70
23618;DHT22;18207;32.078;34.818;2024-02-16T00:10:17;21.50;42.70
23618;DHT22;18207;32.078;34.818;2024-02-16T00:12:47;21.50;42.70
23618;DHT22;18207;32.078;34.818;2024-02-16T00:15:17;21.50;42.70
23618;DHT22;18207;32.078;34.818;2024-02-16T00:17:47;21.40;42.60
23618;DHT22;18207;32.078;34.818;2024-02-16T00:20:19;21.40;42.60
23618;DHT22;18207;32.078;34.818;2024-02-16T00:22:50;21.40;42.50
23618;DHT22;18207;32.078;34.818;2024-02-16T00:25:20;21.40;42.60
23618;DHT22;18207;32.078;34.818;2024-02-16T00:27:50;21.40;42.50
23618;DHT22;18207;32.078;34.818;2024-02-16T00:30:21;21.40;42.50
23618;DHT22;18207;32.078;34.818;2024-02-16T00:32:51;21.40;42.60
23618;DHT22;18207;32.078;34.818;2024-02-16T00:35:23;21.40;42.60
23618;DHT22;18207;32.078;34.818;2024-02-16T00:37:53;21.40;42.50
23618;DHT22;18207;32.078;34.818;2024-02-16T00:40:23;21.30;42.40
23618;DHT22;18207;32.078;34.818;2024-02-16T00:42:54;21.40;42.40
23618;DHT22;18207;32.078;34.818;2024-02-16T00:45:24;21.30;42.40
23618;DHT22;18207;32.078;34.818;2024-02-16T00:47:54;21.40;42.50
23618;DHT22;18207;32.078;34.818;2024-02-16T00:50:29;21.40;42.50
23618;DHT22;18207;32.078;34.818;2024-02-16T00:53:08;21.30;42.40
23618;DHT22;18207;32.078;34.818;2024-02-16T00:55:38;21.30;42.40
23618;DHT22;18207;32.078;34.818;2024-02-16T00:58:09;21.30;42.40
23618;DHT22;18207;32.078;34.818;2024-02-16T01:00:39;21.40;42.50
23618;DHT22;18207;32.078;34.818;2024-02-16T01:03:09;21.30;42.40
23618;DHT22;18207;32.078;34.818;2024-02-16T01:05:41;21.30;42.40
23618;DHT22;18207;32.078;34.818;2024-02-16T01:08:11;21.30;42.40
23618;DHT22;18207;32.078;34.818;2024-02-16T01:10:41;21.30;42.40
23618;DHT22;18207;32.078;34.818;2024-02-16T01:13:11;21.30;42.40
23618;DHT22;18207;32.078;34.818;2024-02-16T01:15:41;21.30;42.50
23618;DHT22;18207;32.078;34.818;2024-02-16T01:18:11;21.30;42.50
23618;DHT22;18207;32.078;34.818;2024-02-16T01:20:42;21.30;42.50
23618;DHT22;18207;32.078;34.818;2024-02-16T01:23:12;21.30;42.40
23618;DHT22;18207;32.078;34.818;2024-02-16T01:25:42;21.30;42.40
23618;DHT22;18207;32.078;34.818;2024-02-16T01:28:11;21.30;42.40
23618;DHT22;18207;32.078;34.818;2024-02-16T01:30:41;21.30;42.40
23618;DHT22;18207;32.078;34.818;2024-02-16T01:33:11;21.30;42.50
23618;DHT22;18207;32.078;34.818;2024-02-16T01:35:43;21.30;42.40
23618;DHT22;18207;32.078;34.818;2024-02-16T01:38:13;21.30;42.50
23618;DHT22;18207;32.078;34.818;2024-02-16T01:40:43;21.30;42.50
23618;DHT22;18207;32.078;34.818;2024-02-16T01:43:13;21.30;42.50
23618;DHT22;18207;32.078;34.818;2024-02-16T01:45:48;21.30;42.50
23618;DHT22;18207;32.078;34.818;2024-02-16T01:48:18;21.30;42.50
23618;DHT22;18207;32.078;34.818;2024-02-16T01:50:51;21.30;42.40
23618;DHT22;18207;32.078;34.818;2024-02-16T01:53:22;21.20;42.30
23618;DHT22;18207;32.078;34.818;2024-02-16T01:55:52;21.20;42.30
23618;DHT22;18207;32.078;34.818;2024-02-16T01:58:23;21.20;42.30
23618;DHT22;18207;32.078;34.818;2024-02-16T02:00:54;21.20;42.40
23618;DHT22;18207;32.078;34.818;2024-02-16T02:03:24;21.20;42.40
23618;DHT22;18207;32.078;34.818;2024-02-16T02:05:55;21.20;42.40
23618;DHT22;18207;32.078;34.818;2024-02-16T02:08:26;21.20;42.40
23618;DHT22;18207;32.078;34.818;2024-02-16T02:10:56;21.20;42.40
23618;DHT22;18207;32.078;34.818;2024-02-16T02:13:26;21.20;42.40
23618;DHT22;18207;32.078;34.818;2024-02-16T02:15:58;21.20;42.30
23618;DHT22;18207;32.078;34.818;2024-02-16T02:18:28;21.10;42.20
23618;DHT22;18207;32.078;34.818;2024-02-16T02:21:00;21.20;42.40
23618;DHT22;18207;32.078;34.818;2024-02-16T02:23:31;21.10;42.40
23618;DHT22;18207;32.078;34.818;2024-02-16T02:26:01;21.10;42.30
23618;DHT22;18207;32.078;34.818;2024-02-16T02:28:31;21.10;42.30
23618;DHT22;18207;32.078;34.818;2024-02-16T02:31:02;21.20;42.40
23618;DHT22;18207;32.078;34.818;2024-02-16T02:33:32;21.10;42.30
23618;DHT22;18207;32.078;34.818;2024-02-16T02:36:02;21.20;42.40
23618;DHT22;18207;32.078;34.818;2024-02-16T02:38:34;21.10;42.30
23618;DHT22;18207;32.078;34.818;2024-02-16T02:41:15;21.20;42.40
23618;DHT22;18207;32.078;34.818;2024-02-16T02:43:47;21.10;42.30
23618;DHT22;18207;32.078;34.818;2024-02-16T02:46:22;21.10;42.30
23618;DHT22;18207;32.078;34.818;2024-02-16T02:48:55;21.10;42.30
23618;DHT22;18207;32.078;34.818;2024-02-16T02:51:25;21.10;42.30
23618;DHT22;18207;32.078;34.818;2024-02-16T02:54:00;21.10;42.30
23618;DHT22;18207;32.078;34.818;2024-02-16T02:56:30;21.10;42.30
23618;DHT22;18207;32.078;34.818;2024-02-16T02:59:00;21.10;42.30
23618;DHT22;18207;32.078;34.818;2024-02-16T03:01:30;21.10;42.40
23618;DHT22;18207;32.078;34.818;2024-02-16T03:04:00;21.10;42.30
23618;DHT22;18207;32.078;34.818;2024-02-16T03:06:30;21.20;42.40
23618;DHT22;18207;32.078;34.818;2024-02-16T03:09:03;21.10;42.40
23618;DHT22;18207;32.078;34.818;2024-02-16T03:11:35;21.10;42.30
23618;DHT22;18207;32.078;34.818;2024-02-16T03:14:06;21.10;42.30
23618;DHT22;18207;32.078;34.818;2024-02-16T03:16:36;21.10;42.30
23618;DHT22;18207;32.078;34.818;2024-02-16T03:19:06;21.10;42.30
23618;DHT22;18207;32.078;34.818;2024-02-16T03:21:37;21.10;42.30
23618;DHT22;18207;32.078;34.818;2024-02-16T03:24:09;21.10;42.30
23618;DHT22;18207;32.078;34.818;2024-02-16T03:26:38;21.10;42.30
23618;DHT22;18207;32.078;34.818;2024-02-16T03:29:08;21.10;42.30
23618;DHT22;18207;32.078;34.818;2024-02-16T03:31:38;21.10;42.40
23618;DHT22;18207;32.078;34.818;2024-02-16T03:34:08;21.10;42.30
23618;DHT22;18207;32.078;34.818;2024-02-16T03:36:38;21.10;42.40
23618;DHT22;18207;32.078;34.818;2024-02-16T03:39:09;21.10;42.40
23618;DHT22;18207;32.078;34.818;2024-02-16T03:41:39;21.10;42.40
23618;DHT22;18207;32.078;34.818;2024-02-16T03:44:09;21.00;42.30
23618;DHT22;18207;32.078;34.818;2024-02-16T03:46:38;21.00;42.40
23618;DHT22;18207;32.078;34.818;2024-02-16T03:49:08;21.00;42.40
23618;DHT22;18207;32.078;34.818;2024-02-16T03:51:38;21.00;42.40
23618;DHT22;18207;32.078;34.818;2024-02-16T03:54:09;21.00;42.40
23618;DHT22;18207;32.078;34.818;2024-02-16T03:56:39;21.00;42.40
23618;DHT22;18207;32.078;34.818;2024-02-16T03:59:09;21.00;42.40
23618;DHT22;18207;32.078;34.818;2024-02-16T04:01:39;21.00;42.40
23618;DHT22;18207;32.078;34.818;2024-02-16T04:04:09;21.00;42.40
23618;DHT22;18207;32.078;34.818;2024-02-16T04:06:39;21.00;42.40
23618;DHT22;18207;32.078;34.818;2024-02-16T04:09:10;21.00;42.50
23618;DHT22;18207;32.078;34.818;2024-02-16T04:11:40;20.90;42.40
23618;DHT22;18207;32.078;34.818;2024-02-16T04:14:10;20.90;42.40
23618;DHT22;18207;32.078;34.818;2024-02-16T04:16:43;20.90;42.40
23618;DHT22;18207;32.078;34.818;2024-02-16T04:19:13;20.90;42.40
23618;DHT22;18207;32.078;34.818;2024-02-16T04:21:42;20.90;42.40
23618;DHT22;18207;32.078;34.818;2024-02-16T04:24:14;20.90;42.40
23618;DHT22;18207;32.078;34.818;2024-02-16T04:26:44;20.90;42.40
23618;DHT22;18207;32.078;34.818;2024-02-16T04:29:19;20.90;42.40
23618;DHT22;18207;32.078;34.818;2024-02-16T04:31:49;20.90;42.40
23618;DHT22;18207;32.078;34.818;2024-02-16T04:34:19;20.90;42.40
23618;DHT22;18207;32.078;34.818;2024-02-16T04:36:49;21.00;42.50
23618;DHT22;18207;32.078;34.818;2024-02-16T04:39:21;21.00;42.50
23618;DHT22;18207;32.078;34.818;2024-02-16T04:41:51;21.00;42.80
23618;DHT22;18207;32.078;34.818;2024-02-16T04:44:21;20.90;42.40
23618;DHT22;18207;32.078;34.818;2024-02-16T04:46:51;21.00;42.50
23618;DHT22;18207;32.078;34.818;2024-02-16T04:49:21;21.00;42.40
23618;DHT22;18207;32.078;34.818;2024-02-16T04:51:51;21.00;42.40
23618;DHT22;18207;32.078;34.818;2024-02-16T04:54:23;21.00;42.50
23618;DHT22;18207;32.078;34.818;2024-02-16T04:56:54;21.00;42.50
23618;DHT22;18207;32.078;34.818;2024-02-16T04:59:26;20.90;42.40
23618;DHT22;18207;32.078;34.818;2024-02-16T05:01:57;20.90;42.40
23618;DHT22;18207;32.078;34.818;2024-02-16T05:04:29;20.90;42.40
23618;DHT22;18207;32.078;34.818;2024-02-16T05:07:00;20.90;42.40
23618;DHT22;18207;32.078;34.818;2024-02-16T05:09:34;20.90;42.40
23618;DHT22;18207;32.078;34.818;2024-02-16T05:12:04;20.90;42.40
23618;DHT22;18207;32.078;34.818;2024-02-16T05:14:36;20.90;42.40
23618;DHT22;18207;32.078;34.818;2024-02-16T05:17:06;20.90;42.40
23618;DHT22;18207;32.078;34.818;2024-02-16T05:19:36;20.90;42.40
23618;DHT22;18207;32.078;34.818;2024-02-16T05:22:06;20.90;42.40
23618;DHT22;18207;32.078;34.818;2024-02-16T05:24:38;20.90;42.50
23618;DHT22;18207;32.078;34.818;2024-02-16T05:27:10;20.90;42.50
23618;DHT22;18207;32.078;34.818;2024-02-16T05:29:39;20.90;42.50
23618;DHT22;18207;32.078;34.818;2024-02-16T05:32:09;20.90;42.50
23618;DHT22;18207;32.078;34.818;2024-02-16T05:34:42;20.90;42.50
23618;DHT22;18207;32.078;34.818;2024-02-16T05:37:12;20.90;42.50
23618;DHT22;18207;32.078;34.818;2024-02-16T05:39:44;20.90;42.50
23618;DHT22;18207;32.078;34.818;2024-02-16T05:42:24;20.90;42.60
23618;DHT22;18207;32.078;34.818;2024-02-16T05:44:54;20.90;42.60
23618;DHT22;18207;32.078;34.818;2024-02-16T05:47:24;20.80;42.50
23618;DHT22;18207;32.078;34.818;2024-02-16T05:49:54;20.80;42.50
23618;DHT22;18207;32.078;34.818;2024-02-16T05:52:26;20.80;42.60
23618;DHT22;18207;32.078;34.818;2024-02-16T05:54:59;20.80;42.60
23618;DHT22;18207;32.078;34.818;2024-02-16T05:57:29;20.90;42.70
23618;DHT22;18207;32.078;34.818;2024-02-16T05:59:59;20.80;42.60
23618;DHT22;18207;32.078;34.818;2024-02-16T06:02:31;20.80;42.60
23618;DHT22;18207;32.078;34.818;2024-02-16T06:05:02;20.80;42.60
23618;DHT22;18207;32.078;34.818;2024-02-16T06:07:32;20.80;42.70
23618;DHT22;18207;32.078;34.818;2024-02-16T06:10:08;20.80;42.70
23618;DHT22;18207;32.078;34.818;2024-02-16T06:12:39;20.80;42.60
23618;DHT22;18207;32.078;34.818;2024-02-16T06:15:10;20.80;42.70
23618;DHT22;18207;32.078;34.818;2024-02-16T06:17:40;20.80;42.70
23618;DHT22;18207;32.078;34.818;2024-02-16T06:20:10;20.80;42.70
23618;DHT22;18207;32.078;34.818;2024-02-16T06:22:43;20.80;42.80
23618;DHT22;18207;32.078;34.818;2024-02-16T06:25:14;20.80;42.80
23618;DHT22;18207;32.078;34.818;2024-02-16T06:27:44;20.80;42.80
23618;DHT22;18207;32.078;34.818;2024-02-16T06:30:14;20.80;42.90
23618;DHT22;18207;32.078;34.818;2024-02-16T06:32:44;20.80;42.90
23618;DHT22;18207;32.078;34.818;2024-02-16T06:35:15;20.80;42.90
23618;DHT22;18207;32.078;34.818;2024-02-16T06:37:45;20.80;42.90
23618;DHT22;18207;32.078;34.818;2024-02-16T06:40:17;20.70;42.80
23618;DHT22;18207;32.078;34.818;2024-02-16T06:42:46;20.80;42.90
23618;DHT22;18207;32.078;34.818;2024-02-16T06:45:16;20.70;42.80
23618;DHT22;18207;32.078;34.818;2024-02-16T06:47:48;20.70;42.90
23618;DHT22;18207;32.078;34.818;2024-02-16T06:50:18;20.70;42.90
23618;DHT22;18207;32.078;34.818;2024-02-16T06:52:48;20.80;43.00
23618;DHT22;18207;32.078;34.818;2024-02-16T06:55:20;20.70;42.90
23618;DHT22;18207;32.078;34.818;2024-02-16T06:57:50;20.70;42.90
23618;DHT22;18207;32.078;34.818;2024-02-16T07:00:20;20.70;42.90
23618;DHT22;18207;32.078;34.818;2024-02-16T07:02:50;20.70;43.00
23618;DHT22;18207;32.078;34.818;2024-02-16T07:05:20;20.70;43.00
23618;DHT22;18207;32.078;34.818;2024-02-16T07:07:50;20.70;43.00
23618;DHT22;18207;32.078;34.818;2024-02-16T07:10:21;20.70;43.00
23618;DHT22;18207;32.078;34.818;2024-02-16T07:12:54;20.70;43.10
23618;DHT22;18207;32.078;34.818;2024-02-16T07:15:24;20.70;43.10
23618;DHT22;18207;32.078;34.818;2024-02-16T07:17:54;20.70;43.20
23618;DHT22;18207;32.078;34.818;2024-02-16T07:20:24;20.70;43.20
23618;DHT22;18207;32.078;34.818;2024-02-16T07:22:54;20.80;43.20
23618;DHT22;18207;32.078;34.818;2024-02-16T07:25:26;20.80;43.20
23618;DHT22;18207;32.078;34.818;2024-02-16T07:27:56;20.80;43.30
23618;DHT22;18207;32.078;34.818;2024-02-16T07:30:26;20.80;43.30
23618;DHT22;18207;32.078;34.818;2024-02-16T07:33:08;20.80;43.30
23618;DHT22;18207;32.078;34.818;2024-02-16T07:35:39;20.80;43.20
23618;DHT22;18207;32.078;34.818;2024-02-16T07:38:09;20.80;43.30
23618;DHT22;18207;32.078;34.818;2024-02-16T07:40:40;20.80;43.30
23618;DHT22;18207;32.078;34.818;2024-02-16T07:43:13;20.90;43.40
23618;DHT22;18207;32.078;34.818;2024-02-16T07:45:43;20.80;43.20
23618;DHT22;18207;32.078;34.818;2024-02-16T07:48:13;20.90;43.40
23618;DHT22;18207;32.078;34.818;2024-02-16T07:50:43;20.80;43.30
23618;DHT22;18207;32.078;34.818;2024-02-16T07:53:13;20.90;43.40
23618;DHT22;18207;32.078;34.818;2024-02-16T07:55:45;20.90;43.40
23618;DHT22;18207;32.078;34.818;2024-02-16T07:58:15;20.90;43.40
23618;DHT22;18207;32.078;34.818;2024-02-16T08:00:44;20.90;43.40
23618;DHT22;18207;32.078;34.818;2024-02-16T08:03:15;20.90;43.40
23618;DHT22;18207;32.078;34.818;2024-02-16T08:05:45;20.90;43.40
23618;DHT22;18207;32.078;34.818;2024-02-16T08:08:15;21.00;43.50
23618;DHT22;18207;32.078;34.818;2024-02-16T08:10:49;21.00;43.50
23618;DHT22;18207;32.078;34.818;2024-02-16T08:13:19;21.00;43.50
23618;DHT22;18207;32.078;34.818;2024-02-16T08:15:49;21.00;43.50
23618;DHT22;18207;32.078;34.818;2024-02-16T08:18:19;21.00;43.50
23618;DHT22;18207;32.078;34.818;2024-02-16T08:20:49;21.00;43.60
23618;DHT22;18207;32.078;34.818;2024-02-16T08:23:19;21.00;43.60
23618;DHT22;18207;32.078;34.818;2024-02-16T08:25:50;21.10;43.70
23618;DHT22;18207;32.078;34.818;2024-02-16T08:28:21;21.10;43.70
23618;DHT22;18207;32.078;34.818;2024-02-16T08:30:50;21.10;43.80
23618;DHT22;18207;32.078;34.818;2024-02-16T08:33:20;21.10;43.80
23618;DHT22;18207;32.078;34.818;2024-02-16T08:35:50;21.10;43.90
23618;DHT22;18207;32.078;34.818;2024-02-16T08:38:20;21.10;43.90
23618;DHT22;18207;32.078;34.818;2024-02-16T08:40:51;21.20;44.00
23618;DHT22;18207;32.078;34.818;2024-02-16T08:43:21;21.20;44.00
23618;DHT22;18207;32.078;34.818;2024-02-16T08:45:51;21.20;43.90
23618;DHT22;18207;32.078;34.818;2024-02-16T08:48:21;21.20;43.90
23618;DHT22;18207;32.078;34.818;2024-02-16T08:50:53;21.20;44.00
23618;DHT22;18207;32.078;34.818;2024-02-16T08:53:23;21.20;44.00
23618;DHT22;18207;32.078;34.818;2024-02-16T08:55:54;21.30;44.00
23618;DHT22;18207;32.078;34.818;2024-02-16T08:58:24;21.30;44.00
23618;DHT22;18207;32.078;34.818;2024-02-16T09:00:54;21.30;44.00
23618;DHT22;18207;32.078;34.818;2024-02-16T09:03:24;21.30;44.10
23618;DHT22;18207;32.078;34.818;2024-02-16T09:05:54;21.30;44.00
23618;DHT22;18207;32.078;34.818;2024-02-16T09:08:25;21.40;44.10
23618;DHT22;18207;32.078;34.818;2024-02-16T09:10:58;21.40;44.10
23618;DHT22;18207;32.078;34.818;2024-02-16T09:13:28;21.40;44.20
23618;DHT22;18207;32.078;34.818;2024-02-16T09:16:01;21.40;44.20
23618;DHT22;18207;32.078;34.818;2024-02-16T09:18:32;21.50;44.20
23618;DHT22;18207;32.078;34.818;2024-02-16T09:21:02;21.50;44.20
23618;DHT22;18207;32.078;34.818;2024-02-16T09:23:32;21.60;44.30
23618;DHT22;18207;32.078;34.818;2024-02-16T09:26:04;21.60;44.30
23618;DHT22;18207;32.078;34.818;2024-02-16T09:28:34;21.70;44.40
23618;DHT22;18207;32.078;34.818;2024-02-16T09:31:07;21.70;44.40
23618;DHT22;18207;32.078;34.818;2024-02-16T09:33:39;21.80;44.50
23618;DHT22;18207;32.078;34.818;2024-02-16T09:36:09;21.80;44.40
23618;DHT22;18207;32.078;34.818;2024-02-16T09:38:40;21.90;44.50
23618;DHT22;18207;32.078;34.818;2024-02-16T09:41:11;21.90;44.50
23618;DHT22;18207;32.078;34.818;2024-02-16T09:43:44;22.00;44.40
23618;DHT22;18207;32.078;34.818;2024-02-16T09:46:15;22.00;44.40
23618;DHT22;18207;32.078;34.818;2024-02-16T09:48:48;22.10;44.40
23618;DHT22;18207;32.078;34.818;2024-02-16T09:51:20;22.10;44.30
23618;DHT22;18207;32.078;34.818;2024-02-16T09:53:51;22.20;44.30
23618;DHT22;18207;32.078;34.818;2024-02-16T09:56:28;22.20;44.30
23618;DHT22;18207;32.078;34.818;2024-02-16T09:58:58;22.20;44.20
23618;DHT22;18207;32.078;34.818;2024-02-16T10:01:28;22.30;44.20
23618;DHT22;18207;32.078;34.818;2024-02-16T10:04:06;22.30;44.20
23618;DHT22;18207;32.078;34.818;2024-02-16T10:06:46;22.30;44.10
23618;DHT22;18207;32.078;34.818;2024-02-16T10:09:30;22.30;44.00
23618;DHT22;18207;32.078;34.818;2024-02-16T10:12:04;22.40;44.00
23618;DHT22;18207;32.078;34.818;2024-02-16T10:14:36;22.40;44.00
23618;DHT22;18207;32.078;34.818;2024-02-16T10:17:09;22.40;43.90
23618;DHT22;18207;32.078;34.818;2024-02-16T10:19:56;22.40;43.90
23618;DHT22;18207;32.078;34.818;2024-02-16T10:22:26;22.40;44.60
23618;DHT22;18207;32.078;34.818;2024-02-16T10:24:55;22.40;43.90
23618;DHT22;18207;32.078;34.818;2024-02-16T10:27:40;22.50;44.00
23618;DHT22;18207;32.078;34.818;2024-02-16T10:30:11;22.50;44.00
23618;DHT22;18207;32.078;34.818;2024-02-16T10:32:43;22.50;43.90
23618;DHT22;18207;32.078;34.818;2024-02-16T10:35:14;22.50;44.00
23618;DHT22;18207;32.078;34.818;2024-02-16T10:37:49;22.50;44.00
23618;DHT22;18207;32.078;34.818;2024-02-16T10:40:19;22.50;43.90
23618;DHT22;18207;32.078;34.818;2024-02-16T10:42:53;22.50;44.00
23618;DHT22;18207;32.078;34.818;2024-02-16T10:45:24;22.60;44.00
23618;DHT22;18207;32.078;34.818;2024-02-16T10:47:54;22.60;43.90
23618;DHT22;18207;32.078;34.818;2024-02-16T10:50:25;22.60;43.90
23618;DHT22;18207;32.078;34.818;2024-02-16T10:52:55;22.60;43.90
23618;DHT22;18207;32.078;34.818;2024-02-16T10:55:31;22.60;43.90
23618;DHT22;18207;32.078;34.818;2024-02-16T10:58:10;22.60;43.90
23618;DHT22;18207;32.078;34.818;2024-02-16T11:00:51;22.60;43.80
23618;DHT22;18207;32.078;34.818;2024-02-16T11:03:23;22.60;43.80
23618;DHT22;18207;32.078;34.818;2024-02-16T11:05:56;22.60;43.80
23618;DHT22;18207;32.078;34.818;2024-02-16T11:08:28;22.60;43.70
23618;DHT22;18207;32.078;34.818;2024-02-16T11:11:00;22.60;43.60
23618;DHT22;18207;32.078;34.818;2024-02-16T11:13:37;22.60;43.70
23618;DHT22;18207;32.078;34.818;2024-02-16T11:16:10;22.60;43.70
23618;DHT22;18207;32.078;34.818;2024-02-16T11:18:42;22.60;43.70
23618;DHT22;18207;32.078;34.818;2024-02-16T11:21:17;22.60;43.70
23618;DHT22;18207;32.078;34.818;2024-02-16T11:23:46;22.70;43.80
23618;DHT22;18207;32.078;34.818;2024-02-16T11:26:26;22.70;43.80
23618;DHT22;18207;32.078;34.818;2024-02-16T11:29:00;22.70;43.80
23618;DHT22;18207;32.078;34.818;2024-02-16T11:31:30;22.70;43.80
23618;DHT22;18207;32.078;34.818;2024-02-16T11:33:59;22.70;43.80
23618;DHT22;18207;32.078;34.818;2024-02-16T11:36:30;22.70;43.80
23618;DHT22;18207;32.078;34.818;2024-02-16T11:39:01;22.80;43.90
23618;DHT22;18207;32.078;34.818;2024-02-16T11:41:32;22.80;43.80
23618;DHT22;18207;32.078;34.818;2024-02-16T11:44:03;22.80;43.80
23618;DHT22;18207;32.078;34.818;2024-02-16T11:46:33;22.90;43.90
23618;DHT22;18207;32.078;34.818;2024-02-16T11:49:07;22.90;43.90
23618;DHT22;18207;32.078;34.818;2024-02-16T11:51:38;22.90;43.80
23618;DHT22;18207;32.078;34.818;2024-02-16T11:54:14;22.90;43.80
23618;DHT22;18207;32.078;34.818;2024-02-16T11:56:49;22.90;43.80
23618;DHT22;18207;32.078;34.818;2024-02-16T11:59:25;22.90;43.70
23618;DHT22;18207;32.078;34.818;2024-02-16T12:01:59;23.00;43.70
23618;DHT22;18207;32.078;34.818;2024-02-16T12:04:31;23.00;43.70
23618;DHT22;18207;32.078;34.818;2024-02-16T12:07:12;23.00;43.60
23618;DHT22;18207;32.078;34.818;2024-02-16T12:09:43;23.10;43.60
23618;DHT22;18207;32.078;34.818;2024-02-16T12:12:24;23.00;43.60
23618;DHT22;18207;32.078;34.818;2024-02-16T12:14:56;23.10;43.60
23618;DHT22;18207;32.078;34.818;2024-02-16T12:17:27;23.10;43.60
23618;DHT22;18207;32.078;34.818;2024-02-16T12:19:57;23.20;43.60
23618;DHT22;18207;32.078;34.818;2024-02-16T12:22:27;23.20;43.40
23618;DHT22;18207;32.078;34.818;2024-02-16T12:24:57;23.20;43.40
23618;DHT22;18207;32.078;34.818;2024-02-16T12:27:30;23.20;43.30
23618;DHT22;18207;32.078;34.818;2024-02-16T12:30:03;23.20;43.20
23618;DHT22;18207;32.078;34.818;2024-02-16T12:32:34;23.20;43.10
23618;DHT22;18207;32.078;34.818;2024-02-16T12:35:05;23.30;43.20
23618;DHT22;18207;32.078;34.818;2024-02-16T12:37:36;23.30;43.20
23618;DHT22;18207;32.078;34.818;2024-02-16T12:40:07;23.30;43.00
23618;DHT22;18207;32.078;34.818;2024-02-16T12:42:38;23.30;43.00
23618;DHT22;18207;32.078;34.818;2024-02-16T12:45:11;23.30;43.00
23618;DHT22;18207;32.078;34.818;2024-02-16T12:47:52;23.30;42.90
23618;DHT22;18207;32.078;34.818;2024-02-16T12:50:26;23.30;42.80
23618;DHT22;18207;32.078;34.818;2024-02-16T12:52:56;23.30;42.90
23618;DHT22;18207;32.078;34.818;2024-02-16T12:55:32;23.30;42.80
23618;DHT22;18207;32.078;34.818;2024-02-16T12:58:04;23.30;42.70
23618;DHT22;18207;32.078;34.818;2024-02-16T13:00:36;23.30;42.70
23618;DHT22;18207;32.078;34.818;2024-02-16T13:03:07;23.30;42.70
23618;DHT22;18207;32.078;34.818;2024-02-16T13:05:41;23.30;42.70
23618;DHT22;18207;32.078;34.818;2024-02-16T13:08:11;23.40;42.80
23618;DHT22;18207;32.078;34.818;2024-02-16T13:10:41;23.40;42.80
23618;DHT22;18207;32.078;34.818;2024-02-16T13:13:11;23.40;42.70
23618;DHT22;18207;32.078;34.818;2024-02-16T13:15:43;23.40;42.70
23618;DHT22;18207;32.078;34.818;2024-02-16T13:18:24;23.40;42.70
23618;DHT22;18207;32.078;34.818;2024-02-16T13:21:00;23.40;42.60
23618;DHT22;18207;32.078;34.818;2024-02-16T13:23:30;23.40;42.60
23618;DHT22;18207;32.078;34.818;2024-02-16T13:26:01;23.40;42.50
23618;DHT22;18207;32.078;34.818;2024-02-16T13:28:32;23.40;42.50
23618;DHT22;18207;32.078;34.818;2024-02-16T13:31:07;23.40;42.40
23618;DHT22;18207;32.078;34.818;2024-02-16T13:33:45;23.40;42.40
23618;DHT22;18207;32.078;34.818;2024-02-16T13:36:16;23.50;42.40
23618;DHT22;18207;32.078;34.818;2024-02-16T13:38:46;23.40;42.30
23618;DHT22;18207;32.078;34.818;2024-02-16T13:41:18;23.40;42.20
23618;DHT22;18207;32.078;34.818;2024-02-16T13:44:01;23.40;42.20
23618;DHT22;18207;32.078;34.818;2024-02-16T13:46:33;23.40;42.20
23618;DHT22;18207;32.078;34.818;2024-02-16T13:49:03;23.40;42.20
23618;DHT22;18207;32.078;34.818;2024-02-16T13:51:33;23.40;42.20
23618;DHT22;18207;32.078;34.818;2024-02-16T13:54:03;23.40;42.20
23618;DHT22;18207;32.078;34.818;2024-02-16T13:56:33;23.40;42.20
23618;DHT22;18207;32.078;34.818;2024-02-16T13:59:04;23.40;42.20
23618;DHT22;18207;32.078;34.818;2024-02-16T14:01:36;23.40;42.20
23618;DHT22;18207;32.078;34.818;2024-02-16T14:04:10;23.40;42.20
23618;DHT22;18207;32.078;34.818;2024-02-16T14:06:48;23.40;42.20
23618;DHT22;18207;32.078;34.818;2024-02-16T14:09:18;23.30;42.10
23618;DHT22;18207;32.078;34.818;2024-02-16T14:11:59;23.40;42.20
23618;DHT22;18207;32.078;34.818;2024-02-16T14:14:29;23.40;42.20
23618;DHT22;18207;32.078;34.818;2024-02-16T14:17:06;23.40;42.10
23618;DHT22;18207;32.078;34.818;2024-02-16T14:19:38;23.40;42.10
23618;DHT22;18207;32.078;34.818;2024-02-16T14:22:09;23.40;42.00
23618;DHT22;18207;32.078;34.818;2024-02-16T14:24:40;23.40;42.00
23618;DHT22;18207;32.078;34.818;2024-02-16T14:27:10;23.40;42.00
23618;DHT22;18207;32.078;34.818;2024-02-16T14:29:40;23.40;41.90
23618;DHT22;18207;32.078;34.818;2024-02-16T14:32:11;23.40;42.00
23618;DHT22;18207;32.078;34.818;2024-02-16T14:34:42;23.40;41.90
23618;DHT22;18207;32.078;34.818;2024-02-16T14:37:12;23.30;41.80
23618;DHT22;18207;32.078;34.818;2024-02-16T14:39:42;23.40;41.80
23618;DHT22;18207;32.078;34.818;2024-02-16T14:42:11;23.30;41.80
23618;DHT22;18207;32.078;34.818;2024-02-16T14:44:41;23.40;41.90
23618;DHT22;18207;32.078;34.818;2024-02-16T14:47:13;23.40;41.90
23618;DHT22;18207;32.078;34.818;2024-02-16T14:49:42;23.30;41.80
23618;DHT22;18207;32.078;34.818;2024-02-16T14:52:12;23.30;41.90
23618;DHT22;18207;32.078;34.818;2024-02-16T14:54:42;23.30;41.80
23618;DHT22;18207;32.078;34.818;2024-02-16T14:57:12;23.30;41.90
23618;DHT22;18207;32.078;34.818;2024-02-16T14:59:47;23.40;42.10
23618;DHT22;18207;32.078;34.818;2024-02-16T15:02:18;23.30;41.80
23618;DHT22;18207;32.078;34.818;2024-02-16T15:04:48;23.40;41.80
23618;DHT22;18207;32.078;34.818;2024-02-16T15:07:20;23.40;41.80
23618;DHT22;18207;32.078;34.818;2024-02-16T15:09:50;23.30;41.80
23618;DHT22;18207;32.078;34.818;2024-02-16T15:12:22;23.30;41.70
23618;DHT22;18207;32.078;34.818;2024-02-16T15:14:54;23.40;41.70
23618;DHT22;18207;32.078;34.818;2024-02-16T15:17:26;23.30;41.60
23618;DHT22;18207;32.078;34.818;2024-02-16T15:19:56;23.30;41.50
23618;DHT22;18207;32.078;34.818;2024-02-16T15:22:28;23.30;41.50
23618;DHT22;18207;32.078;34.818;2024-02-16T15:25:11;23.40;41.60
23618;DHT22;18207;32.078;34.818;2024-02-16T15:27:41;23.40;41.50
23618;DHT22;18207;32.078;34.818;2024-02-16T15:30:11;23.30;41.40
23618;DHT22;18207;32.078;34.818;2024-02-16T15:32:46;23.30;41.40
23618;DHT22;18207;32.078;34.818;2024-02-16T15:35:21;23.30;41.50
23618;DHT22;18207;32.078;34.818;2024-02-16T15:37:52;23.40;41.50
23618;DHT22;18207;32.078;34.818;2024-02-16T15:40:22;23.30;41.40